createdAt,value
2022-11-08T00:00:14.772Z,9.90
2022-11-08T00:02:43.039Z,9.43
2022-11-08T00:05:29.977Z,10.17
2022-11-08T00:08:15.585Z,10.87
2022-11-08T00:11:01.341Z,11.73
2022-11-08T00:13:47.024Z,10.87
2022-11-08T00:16:15.243Z,11.03
2022-11-08T00:18:43.265Z,13.60
2022-11-08T00:21:12.860Z,12.20
2022-11-08T00:23:44.309Z,12.13
2022-11-08T00:26:12.454Z,12.53
2022-11-08T00:28:40.554Z,15.90
2022-11-08T00:31:08.962Z,14.23
2022-11-08T00:33:37.444Z,11.33
2022-11-08T00:36:06.102Z,12.13
2022-11-08T00:38:35.481Z,11.73
2022-11-08T00:41:03.573Z,11.57
2022-11-08T00:43:31.592Z,14.93
2022-11-08T00:45:59.580Z,13.70
2022-11-08T00:48:27.689Z,13.50
2022-11-08T00:50:55.622Z,14.63
2022-11-08T00:53:23.607Z,14.53
2022-11-08T00:55:59.911Z,14.80
2022-11-08T00:58:28.656Z,14.10
2022-11-08T01:00:57.448Z,13.70
2022-11-08T01:03:26.131Z,15.57
2022-11-08T01:05:55.662Z,19.80
2022-11-08T01:08:24.713Z,16.70
2022-11-08T01:10:54.123Z,15.83
2022-11-08T01:13:22.381Z,17.90
2022-11-08T01:15:50.552Z,15.70
2022-11-08T01:18:19.657Z,19.50
2022-11-08T01:20:50.343Z,20.80
2022-11-08T01:23:19.366Z,21.17
2022-11-08T01:25:48.647Z,19.17
2022-11-08T01:28:18.946Z,15.23
2022-11-08T01:30:47.496Z,15.17
2022-11-08T01:33:16.270Z,16.73
2022-11-08T01:35:46.862Z,19.20
2022-11-08T01:38:15.343Z,18.77
2022-11-08T01:40:45.721Z,18.27
2022-11-08T01:43:35.929Z,18.20
2022-11-08T01:46:32.465Z,16.20
2022-11-08T01:49:19.789Z,16.10
2022-11-08T01:51:52.444Z,15.00
2022-11-08T01:54:24.562Z,15.30
2022-11-08T01:56:52.776Z,18.90
2022-11-08T01:59:22.514Z,21.30
2022-11-08T02:01:50.972Z,24.03
2022-11-08T02:04:19.383Z,22.53
2022-11-08T02:06:47.544Z,18.73
2022-11-08T02:09:17.706Z,19.17
2022-11-08T02:11:47.353Z,14.67
2022-11-08T02:14:15.735Z,17.60
2022-11-08T02:16:45.211Z,16.30
2022-11-08T02:19:21.038Z,13.60
2022-11-08T02:21:54.482Z,13.77
2022-11-08T02:24:24.408Z,16.97
2022-11-08T02:26:54.259Z,16.37
2022-11-08T02:29:28.847Z,14.83
2022-11-08T02:31:57.981Z,19.13
2022-11-08T02:34:29.101Z,16.17
2022-11-08T02:36:57.341Z,12.70
2022-11-08T02:39:26.938Z,14.10
2022-11-08T02:41:55.222Z,14.87
2022-11-08T02:44:23.236Z,15.83
2022-11-08T02:46:51.371Z,16.00
2022-11-08T02:49:19.553Z,14.83
2022-11-08T02:51:47.595Z,16.03
2022-11-08T02:54:16.175Z,14.93
2022-11-08T02:56:45.510Z,15.77
2022-11-08T02:59:13.614Z,17.70
2022-11-08T03:01:41.730Z,13.83
2022-11-08T03:04:10.138Z,13.83
2022-11-08T03:06:38.181Z,12.60
2022-11-08T03:09:06.941Z,11.23
2022-11-08T03:11:34.922Z,15.07
2022-11-08T03:14:04.362Z,14.93
2022-11-08T03:16:32.753Z,13.80
2022-11-08T03:19:00.755Z,14.47
2022-11-08T03:21:28.751Z,13.63
2022-11-08T03:23:56.927Z,12.23
2022-11-08T03:26:24.914Z,15.90
2022-11-08T03:28:52.817Z,15.00
2022-11-08T03:31:22.149Z,16.00
2022-11-08T03:33:50.398Z,13.07
2022-11-08T03:36:18.382Z,12.30
2022-11-08T03:38:46.302Z,16.43
2022-11-08T03:41:14.283Z,14.73
2022-11-08T03:43:42.650Z,16.03
2022-11-08T03:46:10.670Z,14.17
2022-11-08T03:48:40.026Z,14.93
2022-11-08T03:51:08.093Z,13.43
2022-11-08T03:53:36.054Z,14.63
2022-11-08T03:56:04.072Z,11.20
2022-11-08T03:58:32.046Z,14.30
2022-11-08T04:01:03.795Z,14.27
2022-11-08T04:03:31.777Z,11.30
2022-11-08T04:06:02.486Z,13.57
2022-11-08T04:08:31.965Z,14.37
2022-11-08T04:11:20.486Z,15.23
2022-11-08T04:14:06.314Z,14.93
2022-11-08T04:16:34.892Z,15.60
2022-11-08T04:19:20.889Z,16.47
2022-11-08T04:21:52.227Z,15.50
2022-11-08T04:24:20.260Z,9.73
2022-11-08T04:26:48.323Z,12.10
2022-11-08T04:29:16.347Z,14.17
2022-11-08T04:31:44.389Z,14.10
2022-11-08T04:34:12.903Z,12.83
2022-11-08T04:36:40.891Z,12.80
2022-11-08T04:39:10.470Z,12.40
2022-11-08T04:41:38.902Z,11.70
2022-11-08T04:44:06.858Z,11.77
2022-11-08T04:46:35.365Z,10.83
2022-11-08T04:49:03.722Z,15.07
2022-11-08T04:51:33.812Z,11.63
2022-11-08T04:54:03.142Z,12.10
2022-11-08T04:56:32.701Z,12.83
2022-11-08T04:59:01.751Z,11.40
2022-11-08T05:01:31.831Z,17.53
2022-11-08T05:04:00.034Z,11.80
2022-11-08T05:06:29.477Z,14.77
2022-11-08T05:08:59.150Z,9.70
2022-11-08T05:11:29.248Z,13.03
2022-11-08T05:13:59.484Z,10.90
2022-11-08T05:16:29.982Z,14.97
2022-11-08T05:18:58.291Z,15.90
2022-11-08T05:21:44.331Z,12.70
2022-11-08T05:24:14.161Z,13.00
2022-11-08T05:26:49.253Z,12.23
2022-11-08T05:29:18.702Z,17.37
2022-11-08T05:31:46.736Z,11.70
2022-11-08T05:34:14.721Z,18.03
2022-11-08T05:36:42.720Z,12.37
2022-11-08T05:39:11.023Z,13.80
2022-11-08T05:41:39.020Z,14.50
2022-11-08T05:44:07.130Z,14.80
2022-11-08T05:46:36.453Z,16.70
2022-11-08T05:49:04.445Z,15.37
2022-11-08T05:51:33.436Z,13.40
2022-11-08T05:54:01.374Z,13.40
2022-11-08T05:56:29.426Z,16.80
2022-11-08T05:58:57.540Z,15.10
2022-11-08T06:01:25.575Z,12.80
2022-11-08T06:03:55.008Z,18.13
2022-11-08T06:06:23.621Z,15.70
2022-11-08T06:08:53.487Z,14.93
2022-11-08T06:11:24.766Z,12.23
2022-11-08T06:13:53.569Z,17.20
2022-11-08T06:16:23.060Z,14.97
2022-11-08T06:18:51.364Z,11.83
2022-11-08T06:21:22.007Z,15.03
2022-11-08T06:23:52.446Z,16.70
2022-11-08T06:26:20.899Z,15.63
2022-11-08T06:28:48.850Z,14.23
2022-11-08T06:31:20.541Z,13.90
2022-11-08T06:33:48.979Z,17.40
2022-11-08T06:36:17.158Z,14.83
2022-11-08T06:38:46.658Z,14.70
2022-11-08T06:41:19.750Z,16.13
2022-11-08T06:43:48.871Z,14.00
2022-11-08T06:46:17.048Z,13.70
2022-11-08T06:48:45.125Z,9.90
2022-11-08T06:51:13.189Z,14.13
2022-11-08T06:53:41.503Z,12.80
2022-11-08T06:56:11.176Z,16.13
2022-11-08T06:58:39.437Z,15.37
2022-11-08T07:01:09.559Z,13.93
2022-11-08T07:03:37.639Z,14.47
2022-11-08T07:06:07.305Z,16.77
2022-11-08T07:08:36.491Z,12.93
2022-11-08T07:11:04.703Z,11.83
2022-11-08T07:13:34.141Z,16.07
2022-11-08T07:16:02.664Z,16.13
2022-11-08T07:18:30.800Z,17.90
2022-11-08T07:21:03.050Z,15.07
2022-11-08T07:23:31.724Z,14.83
2022-11-08T07:26:02.826Z,17.37
2022-11-08T07:28:31.194Z,19.53
2022-11-08T07:31:03.766Z,18.43
2022-11-08T07:33:32.065Z,18.80
2022-11-08T07:36:00.200Z,24.73
2022-11-08T07:38:28.240Z,30.70
2022-11-08T07:41:00.027Z,13.73
2022-11-08T07:43:29.399Z,12.53
2022-11-08T07:45:59.276Z,16.00
2022-11-08T07:48:30.712Z,13.93
2022-11-08T07:50:58.888Z,20.60
2022-11-08T07:53:27.134Z,13.47
2022-11-08T07:55:55.345Z,14.53
2022-11-08T07:58:23.411Z,11.50
2022-11-08T08:00:51.723Z,16.43
2022-11-08T08:03:20.661Z,15.07
2022-11-08T08:05:58.213Z,10.00
2022-11-08T08:08:29.205Z,11.73
2022-11-08T08:10:59.134Z,12.37
2022-11-08T08:13:27.141Z,11.27
2022-11-08T08:15:58.049Z,11.23
2022-11-08T08:18:26.478Z,9.67
2022-11-08T08:20:56.021Z,9.47
2022-11-08T08:23:24.207Z,12.20
2022-11-08T08:25:52.815Z,16.57
2022-11-08T08:28:20.960Z,9.87
2022-11-08T08:30:49.067Z,13.07
2022-11-08T08:33:33.972Z,14.10
2022-11-08T08:36:03.935Z,12.60
2022-11-08T08:38:32.978Z,14.47
2022-11-08T08:41:01.543Z,13.80
2022-11-08T08:43:32.279Z,14.13
2022-11-08T08:46:01.052Z,12.83
2022-11-08T08:48:29.621Z,12.17
2022-11-08T08:50:57.835Z,16.50
2022-11-08T08:53:27.965Z,18.00
2022-11-08T08:55:56.101Z,16.03
2022-11-08T08:58:24.103Z,17.13
2022-11-08T09:03:40.302Z,15.47
2022-11-08T09:06:08.686Z,15.80
2022-11-08T09:08:38.259Z,16.00
2022-11-08T09:11:06.470Z,15.57
2022-11-08T09:13:34.481Z,14.17
2022-11-08T09:16:03.617Z,13.30
2022-11-08T09:18:32.480Z,13.50
2022-11-08T09:21:01.426Z,13.47
2022-11-08T09:23:29.436Z,11.40
2022-11-08T09:25:59.895Z,17.30
2022-11-08T09:28:31.255Z,18.67
2022-11-08T09:31:04.924Z,11.73
2022-11-08T09:33:33.400Z,11.00
2022-11-08T09:36:02.293Z,9.17
2022-11-08T09:38:30.824Z,9.23
2022-11-08T09:41:23.084Z,8.50
2022-11-08T09:44:08.331Z,9.53
2022-11-08T09:46:40.558Z,8.70
2022-11-08T09:49:14.742Z,11.17
2022-11-08T09:51:43.362Z,10.90
2022-11-08T09:54:19.738Z,17.97
2022-11-08T09:56:51.434Z,17.17
2022-11-08T09:59:29.714Z,14.43
2022-11-08T10:01:57.869Z,12.90
2022-11-08T10:04:29.461Z,10.33
2022-11-08T10:07:06.013Z,13.57
2022-11-08T10:09:49.769Z,10.53
2022-11-08T10:12:26.558Z,11.60
2022-11-08T10:15:12.469Z,11.30
2022-11-08T10:18:08.417Z,11.10
2022-11-08T10:20:45.500Z,9.73
2022-11-08T10:23:22.622Z,12.90
2022-11-08T10:25:56.975Z,10.27
2022-11-08T10:28:33.853Z,11.80
2022-11-08T10:31:02.818Z,11.50
2022-11-08T10:33:33.706Z,11.93
2022-11-08T10:36:07.914Z,14.63
2022-11-08T10:38:41.006Z,13.23
2022-11-08T10:41:16.858Z,14.37
2022-11-08T10:43:50.876Z,15.43
2022-11-08T10:46:36.001Z,15.57
2022-11-08T10:49:16.848Z,14.90
2022-11-08T10:51:46.657Z,15.30
2022-11-08T10:54:48.561Z,14.50
2022-11-08T10:57:23.658Z,15.30
2022-11-08T10:59:53.711Z,17.80
2022-11-08T11:02:25.817Z,15.90
2022-11-08T11:04:56.024Z,16.93
2022-11-08T11:07:30.810Z,15.30
2022-11-08T11:09:59.567Z,15.17
2022-11-08T11:12:27.603Z,14.03
2022-11-08T11:15:00.179Z,16.43
2022-11-08T11:17:35.606Z,13.37
2022-11-08T11:20:19.390Z,13.40
2022-11-08T11:22:48.126Z,13.77
2022-11-08T11:25:19.017Z,13.40
2022-11-08T11:27:54.625Z,12.33
2022-11-08T11:30:28.199Z,12.37
2022-11-08T11:33:07.632Z,13.83
2022-11-08T11:35:42.415Z,12.97
2022-11-08T11:38:19.657Z,12.53
2022-11-08T11:40:49.550Z,14.17
2022-11-08T11:43:25.436Z,15.70
2022-11-08T11:46:01.716Z,15.03
2022-11-08T11:48:31.737Z,15.37
2022-11-08T11:51:00.400Z,17.20
2022-11-08T11:53:32.846Z,17.90
2022-11-08T11:56:30.642Z,17.13
2022-11-08T11:59:31.338Z,19.03
2022-11-08T12:02:25.361Z,21.03
2022-11-08T12:05:20.898Z,17.73
2022-11-08T12:07:59.087Z,21.90
2022-11-08T12:10:40.889Z,37.60
2022-11-08T12:13:17.160Z,23.20
2022-11-08T12:15:53.172Z,29.30
2022-11-08T12:18:46.168Z,21.63
2022-11-08T12:21:16.171Z,19.50
2022-11-08T12:24:08.019Z,22.37
2022-11-08T12:26:42.387Z,20.83
2022-11-08T12:29:25.777Z,24.77
2022-11-08T12:32:11.057Z,24.03
2022-11-08T12:34:49.619Z,27.47
2022-11-08T12:37:28.922Z,28.37
2022-11-08T12:40:01.756Z,29.03
2022-11-08T12:42:53.284Z,29.60
2022-11-08T12:45:50.488Z,23.10
2022-11-08T12:48:30.114Z,24.80
2022-11-08T12:51:10.700Z,22.77
2022-11-08T12:53:52.130Z,25.60
2022-11-08T12:56:23.185Z,28.40
2022-11-08T12:58:53.513Z,23.37
2022-11-08T13:01:23.502Z,24.90
2022-11-08T13:04:18.831Z,25.47
2022-11-08T13:06:56.549Z,30.40
2022-11-08T13:09:35.616Z,26.87
2022-11-08T13:12:12.128Z,25.00
2022-11-08T13:14:41.649Z,26.97
2022-11-08T13:17:19.042Z,25.17
2022-11-08T13:20:06.614Z,26.30
2022-11-08T13:23:01.678Z,24.80
2022-11-08T13:25:41.243Z,23.77
2022-11-08T13:28:39.087Z,43.77
2022-11-08T13:31:38.666Z,24.87
2022-11-08T13:34:43.153Z,30.93
2022-11-08T13:37:47.110Z,32.73
2022-11-08T13:40:28.354Z,26.07
2022-11-08T13:43:20.275Z,29.70
2022-11-08T13:45:48.927Z,40.10
2022-11-08T13:48:44.374Z,28.13
2022-11-08T13:51:31.748Z,26.50
2022-11-08T13:54:01.190Z,26.40
2022-11-08T13:56:52.476Z,26.30
2022-11-08T13:59:59.733Z,29.30
2022-11-08T14:02:41.197Z,28.80
2022-11-08T14:05:30.784Z,28.17
2022-11-08T14:08:17.530Z,29.00
2022-11-08T14:11:30.858Z,29.30
2022-11-08T14:14:16.642Z,26.37
2022-11-08T14:17:09.582Z,28.30
2022-11-08T14:19:40.591Z,27.87
2022-11-08T14:22:16.153Z,26.80
2022-11-08T14:24:44.798Z,26.97
2022-11-08T14:27:15.143Z,26.37
2022-11-08T14:29:44.711Z,26.30
2022-11-08T14:32:19.155Z,26.30
2022-11-08T14:34:49.986Z,25.67
2022-11-08T14:37:24.601Z,24.20
2022-11-08T14:39:53.255Z,22.10
2022-11-08T14:42:24.941Z,21.13
2022-11-08T14:44:57.208Z,23.90
2022-11-08T14:47:28.538Z,22.90
2022-11-08T14:49:56.861Z,20.83
2022-11-08T14:52:29.628Z,21.43
2022-11-08T14:55:05.613Z,21.50
2022-11-08T14:57:38.549Z,23.67
2022-11-08T15:00:17.310Z,19.40
2022-11-08T15:02:48.308Z,21.07
2022-11-08T15:05:33.759Z,19.37
2022-11-08T15:08:04.593Z,20.30
2022-11-08T15:10:32.949Z,19.60
2022-11-08T15:13:01.360Z,19.93
2022-11-08T15:15:33.443Z,19.40
2022-11-08T15:18:14.303Z,19.10
2022-11-08T15:20:57.515Z,16.07
2022-11-08T15:23:40.504Z,18.77
2022-11-08T15:26:20.663Z,19.53
2022-11-08T15:29:04.760Z,17.80
2022-11-08T15:31:45.867Z,16.37
2022-11-08T15:34:22.671Z,24.47
2022-11-08T15:36:51.347Z,17.03
2022-11-08T15:39:23.547Z,17.87
2022-11-08T15:42:03.068Z,19.40
2022-11-08T15:44:31.393Z,14.83
2022-11-08T15:47:00.775Z,17.10
2022-11-08T15:49:30.557Z,18.77
2022-11-08T15:51:59.636Z,22.90
2022-11-08T15:54:28.354Z,20.00
2022-11-08T15:56:57.792Z,19.17
2022-11-08T15:59:29.511Z,19.57
2022-11-08T16:02:02.608Z,22.50
2022-11-08T16:04:31.784Z,27.40
2022-11-08T16:06:59.873Z,19.70
2022-11-08T16:09:28.330Z,19.80
2022-11-08T16:11:59.462Z,20.60
2022-11-08T16:14:27.685Z,18.67
2022-11-08T16:16:56.014Z,22.13
2022-11-08T16:19:26.070Z,20.30
2022-11-08T16:21:54.282Z,19.60
2022-11-08T16:24:22.421Z,23.70
2022-11-08T16:26:52.406Z,22.10
2022-11-08T16:29:23.679Z,20.63
2022-11-08T16:31:52.667Z,21.47
2022-11-08T16:34:21.392Z,22.33
2022-11-08T16:36:52.020Z,24.10
2022-11-08T16:39:26.099Z,20.63
2022-11-08T16:41:54.288Z,22.07
2022-11-08T16:44:23.094Z,30.30
2022-11-08T16:46:53.764Z,21.10
2022-11-08T16:49:23.066Z,29.47
2022-11-08T16:51:52.386Z,22.27
2022-11-08T16:54:23.965Z,20.27
2022-11-08T16:57:03.338Z,20.30
2022-11-08T16:59:40.401Z,19.03
2022-11-08T17:02:20.268Z,25.60
2022-11-08T17:04:48.312Z,22.10
2022-11-08T17:07:17.883Z,28.17
2022-11-08T17:09:45.936Z,36.33
2022-11-08T17:12:13.997Z,28.00
2022-11-08T17:14:42.019Z,26.33
2022-11-08T17:17:12.114Z,53.10
2022-11-08T17:19:40.413Z,24.40
2022-11-08T17:22:08.811Z,28.67
2022-11-08T17:24:38.435Z,42.57
2022-11-08T17:27:06.563Z,39.83
2022-11-08T17:29:35.102Z,34.13
2022-11-08T17:32:05.765Z,60.67
2022-11-08T17:34:34.110Z,56.50
2022-11-08T17:37:02.147Z,43.40
2022-11-08T17:39:30.300Z,32.33
2022-11-08T17:42:00.046Z,32.93
2022-11-08T17:44:29.774Z,27.77
2022-11-08T17:46:57.882Z,20.70
2022-11-08T17:49:25.878Z,21.10
2022-11-08T17:51:53.831Z,28.50
2022-11-08T17:54:21.870Z,29.80
2022-11-08T17:56:50.057Z,35.20
2022-11-08T17:59:19.445Z,23.90
2022-11-08T18:01:47.511Z,28.10
2022-11-08T18:04:15.741Z,24.20
2022-11-08T18:06:44.414Z,23.70
2022-11-08T18:09:13.934Z,21.00
2022-11-08T18:11:47.551Z,23.40
2022-11-08T18:14:15.738Z,24.80
2022-11-08T18:16:45.294Z,23.63
2022-11-08T18:19:13.620Z,24.87
2022-11-08T18:21:44.390Z,21.37
2022-11-08T18:24:12.954Z,23.20
2022-11-08T18:26:41.461Z,22.20
2022-11-08T18:29:09.481Z,25.90
2022-11-08T18:31:38.485Z,22.57
2022-11-08T18:34:07.866Z,27.83
2022-11-08T18:36:36.226Z,28.50
2022-11-08T18:39:04.735Z,26.53
2022-11-08T18:41:34.085Z,28.57
2022-11-08T18:44:03.635Z,32.30
2022-11-08T18:46:40.242Z,31.93
2022-11-08T18:49:12.540Z,23.60
2022-11-08T18:51:40.570Z,23.10
2022-11-08T18:54:09.129Z,25.43
2022-11-08T18:56:37.378Z,25.37
2022-11-08T18:59:06.544Z,24.80
2022-11-08T19:01:34.567Z,26.70
2022-11-08T19:04:02.563Z,23.47
2022-11-08T19:06:32.008Z,24.00
2022-11-08T19:09:00.252Z,24.10
2022-11-08T19:11:30.537Z,24.17
2022-11-08T19:13:59.565Z,26.93
2022-11-08T19:16:27.742Z,25.93
2022-11-08T19:18:55.808Z,26.00
2022-11-08T19:21:26.815Z,25.37
2022-11-08T19:23:58.690Z,27.90
2022-11-08T19:26:28.911Z,25.70
2022-11-08T19:28:58.135Z,24.50
2022-11-08T19:31:27.256Z,24.97
2022-11-08T19:33:56.234Z,24.07
2022-11-08T19:36:25.748Z,25.10
2022-11-08T19:38:54.911Z,23.83
2022-11-08T19:41:25.816Z,25.80
2022-11-08T19:43:54.978Z,25.50
2022-11-08T19:46:26.008Z,25.70
2022-11-08T19:48:54.168Z,25.93
2022-11-08T19:51:23.606Z,24.23
2022-11-08T19:53:55.454Z,24.83
2022-11-08T19:56:43.401Z,27.70
2022-11-08T19:59:13.273Z,27.20
2022-11-08T20:01:41.502Z,24.97
2022-11-08T20:04:11.541Z,26.30
2022-11-08T20:06:40.187Z,26.30
2022-11-08T20:09:09.857Z,26.97
2022-11-08T20:11:41.501Z,29.07
2022-11-08T20:14:13.285Z,24.97
2022-11-08T20:16:45.013Z,27.27
2022-11-08T20:19:18.167Z,29.83
2022-11-08T20:21:47.492Z,25.17
2022-11-08T20:24:17.070Z,29.53
2022-11-08T20:26:46.703Z,31.17
2022-11-08T20:29:15.148Z,30.40
2022-11-08T20:31:43.234Z,25.50
2022-11-08T20:34:12.921Z,26.30
2022-11-08T20:36:41.837Z,26.60
2022-11-08T20:39:10.723Z,27.50
2022-11-08T20:41:41.015Z,29.17
2022-11-08T20:44:11.297Z,27.07
2022-11-08T20:46:39.857Z,28.67
2022-11-08T20:49:08.531Z,25.30
2022-11-08T20:51:36.530Z,23.87
2022-11-08T20:54:04.944Z,26.23
2022-11-08T20:56:36.777Z,26.10
2022-11-08T20:59:04.982Z,24.90
2022-11-08T21:01:35.809Z,26.00
2022-11-08T21:04:03.986Z,23.40
2022-11-08T21:06:36.081Z,24.90
2022-11-08T21:09:29.881Z,25.13
2022-11-08T21:11:53.306Z,24.07
2022-11-08T21:14:21.365Z,22.03
2022-11-08T21:19:39.205Z,22.97
2022-11-08T21:22:16.886Z,23.67
2022-11-08T21:24:46.182Z,22.50
2022-11-08T21:27:14.381Z,23.20
2022-11-08T21:29:43.457Z,24.00
2022-11-08T21:32:13.094Z,25.10
2022-11-08T21:34:45.815Z,22.93
2022-11-08T21:37:14.914Z,32.10
2022-11-08T21:39:43.040Z,23.07
2022-11-08T21:42:11.151Z,24.33
2022-11-08T21:44:39.306Z,24.40
2022-11-08T21:47:07.306Z,22.83
2022-11-08T21:49:36.760Z,24.67
2022-11-08T21:52:04.934Z,23.40
2022-11-08T21:54:32.871Z,23.47
2022-11-08T21:57:00.786Z,26.37
2022-11-08T21:59:28.727Z,26.93
2022-11-08T22:01:56.727Z,25.57
2022-11-08T22:04:24.841Z,27.50
2022-11-08T22:06:54.986Z,25.33
2022-11-08T22:09:23.028Z,23.50
2022-11-08T22:11:51.133Z,25.60
2022-11-08T22:14:19.146Z,23.60
2022-11-08T22:16:47.070Z,24.53
2022-11-08T22:19:15.379Z,23.73
2022-11-08T22:21:46.019Z,24.87
2022-11-08T22:24:18.038Z,26.03
2022-11-08T22:26:46.057Z,22.87
2022-11-08T22:29:14.014Z,23.37
2022-11-08T22:31:42.246Z,22.13
2022-11-08T22:34:10.856Z,22.77
2022-11-08T22:36:45.026Z,22.10
2022-11-08T22:39:16.217Z,23.60
2022-11-08T22:41:44.756Z,22.93
2022-11-08T22:44:13.599Z,24.27
2022-11-08T22:46:42.307Z,24.33
2022-11-08T22:49:10.880Z,22.43
2022-11-08T22:51:39.261Z,24.33
2022-11-08T22:54:07.708Z,23.37
2022-11-08T22:56:37.698Z,24.50
2022-11-08T22:59:05.897Z,26.00
2022-11-08T23:01:34.071Z,27.83
2022-11-08T23:04:02.263Z,23.73
2022-11-08T23:06:30.461Z,23.27
2022-11-08T23:08:58.931Z,22.57
2022-11-08T23:11:44.494Z,23.97
2022-11-08T23:14:36.713Z,23.30
2022-11-08T23:17:07.083Z,25.17
2022-11-08T23:19:52.954Z,24.80
2022-11-08T23:22:38.662Z,22.80
2022-11-08T23:25:07.742Z,23.10
2022-11-08T23:27:53.268Z,23.90
2022-11-08T23:30:40.048Z,24.60
2022-11-08T23:33:08.077Z,26.23
2022-11-08T23:35:36.064Z,24.90
2022-11-08T23:38:04.193Z,23.33
2022-11-08T23:40:50.054Z,24.30
2022-11-08T23:43:49.185Z,21.87
2022-11-08T23:46:18.734Z,23.97
2022-11-08T23:48:46.799Z,23.97
2022-11-08T23:51:14.748Z,24.90
2022-11-08T23:53:43.856Z,24.47
2022-11-08T23:56:14.286Z,26.10
2022-11-08T23:58:42.258Z,23.20
